createdAt,value
2017-07-01T00:01:12.173Z,4.53
2017-07-01T00:03:40.425Z,4.07
2017-07-01T00:06:08.541Z,6.77
2017-07-01T00:08:36.683Z,3.67
2017-07-01T00:11:04.999Z,4.30
2017-07-01T00:13:33.115Z,3.67
2017-07-01T00:16:01.278Z,5.20
2017-07-01T00:18:29.415Z,6.97
2017-07-01T00:20:57.557Z,5.70
2017-07-01T00:23:25.762Z,6.23
2017-07-01T00:25:53.899Z,6.03
2017-07-01T00:28:22.064Z,6.60
2017-07-01T00:30:50.202Z,7.10
2017-07-01T00:33:18.454Z,6.77
2017-07-01T00:35:46.585Z,7.23
2017-07-01T00:38:14.768Z,6.63
2017-07-01T00:40:42.902Z,7.33
2017-07-01T00:43:11.140Z,6.53
2017-07-01T00:45:39.288Z,8.17
2017-07-01T00:48:07.532Z,7.90
2017-07-01T00:50:35.648Z,8.40
2017-07-01T00:53:03.878Z,7.93
2017-07-01T00:55:32.012Z,8.93
2017-07-01T00:58:00.163Z,8.83
2017-07-01T01:00:28.296Z,9.00
2017-07-01T01:02:56.408Z,8.50
2017-07-01T01:05:24.583Z,8.93
2017-07-01T01:07:52.712Z,9.23
2017-07-01T01:10:20.837Z,9.00
2017-07-01T01:12:48.974Z,10.13
2017-07-01T01:15:17.142Z,9.73
2017-07-01T01:17:45.367Z,9.30
2017-07-01T01:20:13.482Z,10.53
2017-07-01T01:22:41.606Z,11.70
2017-07-01T01:25:09.852Z,10.40
2017-07-01T01:27:37.986Z,10.50
2017-07-01T01:30:06.130Z,9.73
2017-07-01T01:32:34.423Z,9.40
2017-07-01T01:35:02.583Z,8.73
2017-07-01T01:37:30.962Z,9.80
2017-07-01T01:39:59.099Z,9.73
2017-07-01T01:42:27.241Z,11.00
2017-07-01T01:44:55.472Z,10.80
2017-07-01T01:47:23.617Z,11.10
2017-07-01T01:49:51.817Z,9.80
2017-07-01T01:52:19.962Z,10.90
2017-07-01T01:54:48.191Z,10.60
2017-07-01T01:57:16.773Z,10.30
2017-07-01T01:59:44.899Z,11.00
2017-07-01T02:02:13.048Z,10.30
2017-07-01T02:04:41.176Z,9.93
2017-07-01T02:07:10.201Z,9.67
2017-07-01T02:09:38.350Z,10.73
2017-07-01T02:12:23.029Z,8.50
2017-07-01T02:14:58.445Z,9.93
2017-07-01T02:17:31.209Z,10.80
2017-07-01T02:19:59.375Z,9.17
2017-07-01T02:22:31.995Z,10.27
2017-07-01T02:25:00.603Z,9.93
2017-07-01T02:27:28.715Z,10.40
2017-07-01T02:29:56.824Z,10.10
2017-07-01T02:32:25.066Z,10.87
2017-07-01T02:34:53.951Z,10.30
2017-07-01T02:37:22.099Z,10.20
2017-07-01T02:39:50.247Z,11.30
2017-07-01T02:42:18.409Z,10.40
2017-07-01T02:44:46.586Z,11.23
2017-07-01T02:47:26.572Z,13.20
2017-07-01T02:49:58.221Z,11.77
2017-07-01T02:52:44.200Z,12.60
2017-07-01T02:55:33.078Z,9.93
2017-07-01T02:58:01.239Z,12.50
2017-07-01T03:00:29.487Z,12.30
2017-07-01T03:02:58.553Z,12.47
2017-07-01T03:05:26.695Z,12.33
2017-07-01T03:07:54.814Z,13.93
2017-07-01T03:10:22.966Z,13.60
2017-07-01T03:12:51.093Z,14.17
2017-07-01T03:15:19.323Z,15.40
2017-07-01T03:17:47.546Z,12.83
2017-07-01T03:20:21.660Z,14.13
2017-07-01T03:23:07.111Z,13.73
2017-07-01T03:25:35.346Z,13.03
2017-07-01T03:28:03.588Z,13.23
2017-07-01T03:30:31.707Z,13.30
2017-07-01T03:32:59.919Z,13.13
2017-07-01T03:35:28.092Z,12.67
2017-07-01T03:38:19.926Z,12.93
2017-07-01T03:41:17.660Z,12.00
2017-07-01T03:46:52.506Z,12.63
2017-07-01T03:49:21.434Z,14.00
2017-07-01T03:51:49.567Z,14.40
2017-07-01T03:54:19.232Z,14.90
2017-07-01T03:56:47.402Z,14.13
2017-07-01T03:59:15.513Z,15.23
2017-07-01T04:01:43.667Z,15.10
2017-07-01T04:04:11.806Z,14.23
2017-07-01T04:06:39.983Z,15.70
2017-07-01T04:09:08.112Z,15.13
2017-07-01T04:11:47.960Z,16.70
2017-07-01T04:14:16.120Z,15.57
2017-07-01T04:16:44.280Z,16.03
2017-07-01T04:19:17.881Z,16.20
2017-07-01T04:21:46.005Z,15.20
2017-07-01T04:24:14.161Z,14.67
2017-07-01T04:26:42.286Z,16.07
2017-07-01T04:29:13.325Z,16.13
2017-07-01T04:31:41.465Z,16.57
2017-07-01T04:34:09.696Z,15.47
2017-07-01T04:36:37.869Z,14.60
2017-07-01T04:39:06.695Z,16.10
2017-07-01T04:42:12.300Z,15.27
2017-07-01T04:44:46.249Z,15.93
2017-07-01T04:47:14.422Z,15.53
2017-07-01T04:49:42.564Z,14.47
2017-07-01T04:52:26.485Z,17.23
2017-07-01T04:54:54.707Z,15.53
2017-07-01T04:57:43.264Z,15.00
2017-07-01T05:00:18.885Z,15.53
2017-07-01T05:02:47.040Z,16.23
2017-07-01T05:05:15.729Z,17.40
2017-07-01T05:08:01.695Z,16.53
2017-07-01T05:10:39.539Z,16.13
2017-07-01T05:13:07.744Z,17.33
2017-07-01T05:15:39.553Z,16.40
2017-07-01T05:18:07.700Z,15.17
2017-07-01T05:20:39.463Z,15.57
2017-07-01T05:23:10.372Z,14.13
2017-07-01T05:26:09.159Z,14.93
2017-07-01T05:28:53.165Z,16.00
2017-07-01T05:31:29.580Z,14.27
2017-07-01T05:34:05.327Z,14.33
2017-07-01T05:36:34.961Z,15.90
2017-07-01T05:39:11.635Z,13.60
2017-07-01T05:41:57.353Z,12.90
2017-07-01T05:44:45.316Z,12.03
2017-07-01T05:47:13.438Z,12.03
2017-07-01T05:49:41.633Z,11.73
2017-07-01T05:52:09.785Z,11.17
2017-07-01T05:54:37.933Z,11.57
2017-07-01T05:57:06.065Z,11.47
2017-07-01T05:59:38.492Z,10.23
2017-07-01T06:02:13.269Z,11.87
2017-07-01T06:04:41.451Z,11.13
2017-07-01T06:07:09.589Z,11.37
2017-07-01T06:09:49.407Z,9.60
2017-07-01T06:12:36.405Z,9.13
2017-07-01T06:15:08.905Z,9.60
2017-07-01T06:17:39.968Z,8.33
2017-07-01T06:20:08.988Z,7.93
2017-07-01T06:22:50.699Z,7.53
2017-07-01T06:25:18.854Z,7.87
2017-07-01T06:27:59.848Z,6.83
2017-07-01T06:30:33.925Z,8.60
2017-07-01T06:33:03.859Z,7.50
2017-07-01T06:35:32.413Z,7.83
2017-07-01T06:38:31.053Z,8.03
2017-07-01T06:41:07.868Z,7.27
2017-07-01T06:43:36.012Z,7.63
2017-07-01T06:46:23.439Z,6.53
2017-07-01T06:48:57.122Z,5.77
2017-07-01T06:51:25.256Z,7.07
2017-07-01T06:54:08.935Z,5.90
2017-07-01T06:56:37.065Z,5.90
2017-07-01T06:59:05.180Z,5.40
2017-07-01T07:01:33.321Z,5.10
2017-07-01T07:04:01.451Z,5.07
2017-07-01T07:06:30.175Z,4.93
2017-07-01T07:09:08.205Z,4.30
2017-07-01T07:11:36.385Z,4.33
2017-07-01T07:14:04.531Z,4.13
2017-07-01T07:16:32.681Z,3.77
2017-07-01T07:19:00.794Z,4.03
2017-07-01T07:21:28.955Z,3.93
2017-07-01T07:23:57.149Z,3.57
2017-07-01T07:26:25.284Z,2.77
2017-07-01T07:28:53.416Z,3.47
2017-07-01T07:31:21.586Z,3.00
2017-07-01T07:33:49.767Z,4.30
2017-07-01T07:36:17.976Z,3.70
2017-07-01T07:38:46.133Z,2.63
2017-07-01T07:41:14.274Z,2.80
2017-07-01T07:43:42.465Z,14.97
2017-07-01T07:46:10.599Z,16.30
2017-07-01T07:48:38.744Z,6.57
2017-07-01T07:51:06.887Z,3.20
2017-07-01T07:53:35.040Z,66.10
2017-07-01T07:56:03.193Z,20.50
2017-07-01T07:58:31.567Z,25.30
2017-07-01T08:00:59.685Z,7.57
2017-07-01T08:03:27.841Z,6.27
2017-07-01T08:05:55.957Z,2.63
2017-07-01T08:08:24.261Z,3.53
2017-07-01T08:10:52.422Z,2.93
2017-07-01T08:13:20.659Z,3.60
2017-07-01T08:15:48.819Z,2.33
2017-07-01T08:18:16.996Z,2.40
2017-07-01T08:20:45.132Z,2.07
2017-07-01T08:23:13.291Z,2.17
2017-07-01T08:25:41.432Z,2.20
2017-07-01T08:28:09.578Z,1.90
2017-07-01T08:30:37.763Z,2.07
2017-07-01T08:33:05.906Z,1.80
2017-07-01T08:35:34.058Z,2.77
2017-07-01T08:38:02.199Z,2.93
2017-07-01T08:40:30.428Z,12.90
2017-07-01T08:42:58.603Z,7.03
2017-07-01T08:45:26.805Z,8.53
2017-07-01T08:47:54.959Z,4.97
2017-07-01T08:50:23.130Z,5.37
2017-07-01T08:52:51.310Z,3.03
2017-07-01T08:55:19.450Z,28.43
2017-07-01T08:57:47.605Z,2.27
2017-07-01T09:00:15.748Z,2.93
2017-07-01T09:02:43.886Z,9.50
2017-07-01T09:05:12.385Z,45.93
2017-07-01T09:07:40.534Z,10.27
2017-07-01T09:10:08.675Z,11.07
2017-07-01T09:12:38.910Z,6.60
2017-07-01T09:15:07.061Z,3.23
2017-07-01T09:17:35.197Z,5.70
2017-07-01T09:20:03.375Z,2.60
2017-07-01T09:22:31.559Z,3.10
2017-07-01T09:24:59.711Z,1.70
2017-07-01T09:27:27.925Z,2.20
2017-07-01T09:29:56.093Z,2.50
2017-07-01T09:32:24.265Z,1.87
2017-07-01T09:34:52.475Z,1.83
2017-07-01T09:37:20.623Z,1.90
2017-07-01T09:39:48.804Z,2.27
2017-07-01T09:42:16.966Z,3.57
2017-07-01T09:44:45.155Z,2.10
2017-07-01T09:47:13.427Z,2.10
2017-07-01T09:49:41.555Z,2.30
2017-07-01T09:52:09.702Z,1.90
2017-07-01T09:54:37.850Z,2.40
2017-07-01T09:57:05.994Z,2.63
2017-07-01T09:59:34.117Z,2.27
2017-07-01T10:02:02.279Z,2.10
2017-07-01T10:04:30.453Z,1.70
2017-07-01T10:06:58.641Z,1.73
2017-07-01T10:09:26.781Z,1.50
2017-07-01T10:11:54.903Z,1.50
2017-07-01T10:14:23.048Z,1.90
2017-07-01T10:16:51.239Z,1.37
2017-07-01T10:19:19.527Z,0.67
2017-07-01T10:21:47.674Z,0.80
2017-07-01T10:24:15.843Z,0.80
2017-07-01T10:26:44.012Z,0.57
2017-07-01T10:29:12.195Z,2.00
2017-07-01T10:31:40.331Z,1.07
2017-07-01T10:34:08.472Z,0.97
2017-07-01T10:36:36.641Z,0.97
2017-07-01T10:39:04.826Z,1.27
2017-07-01T10:41:32.971Z,1.37
2017-07-01T10:44:01.099Z,1.20
2017-07-01T10:46:29.273Z,1.00
2017-07-01T10:48:57.642Z,1.10
2017-07-01T10:51:25.745Z,0.97
2017-07-01T10:53:53.901Z,1.40
2017-07-01T10:56:22.063Z,3.70
2017-07-01T10:58:50.196Z,41.20
2017-07-01T11:01:18.308Z,14.73
2017-07-01T11:03:46.483Z,39.40
2017-07-01T11:06:14.622Z,17.27
2017-07-01T11:08:42.759Z,20.27
2017-07-01T11:11:11.473Z,12.80
2017-07-01T11:13:39.633Z,28.23
2017-07-01T11:16:07.809Z,10.63
2017-07-01T11:18:35.948Z,32.50
2017-07-01T11:21:04.110Z,17.47
2017-07-01T11:23:32.237Z,9.87
2017-07-01T11:26:00.690Z,11.53
2017-07-01T11:28:28.862Z,4.17
2017-07-01T11:30:57.072Z,6.00
2017-07-01T11:33:25.207Z,2.33
2017-07-01T11:35:54.293Z,3.47
2017-07-01T11:38:22.428Z,1.80
2017-07-01T11:40:50.625Z,2.23
2017-07-01T11:43:19.490Z,2.10
2017-07-01T11:45:47.664Z,1.17
2017-07-01T11:48:16.558Z,1.93
2017-07-01T11:50:44.966Z,1.33
2017-07-01T11:53:13.085Z,1.20
2017-07-01T11:55:41.270Z,1.57
2017-07-01T11:58:09.541Z,0.93
2017-07-01T12:00:37.648Z,1.00
2017-07-01T12:03:05.830Z,1.07
2017-07-01T12:05:33.971Z,0.90
2017-07-01T12:08:03.086Z,28.77
2017-07-01T12:10:31.198Z,6.50
2017-07-01T12:12:59.382Z,10.73
2017-07-01T12:15:27.510Z,22.37
2017-07-01T12:17:55.692Z,28.30
2017-07-01T12:20:23.879Z,46.00
2017-07-01T12:22:52.007Z,42.87
2017-07-01T12:25:20.151Z,33.70
2017-07-01T12:27:49.094Z,23.67
2017-07-01T12:30:17.292Z,32.73
2017-07-01T12:32:45.498Z,24.73
2017-07-01T12:35:14.391Z,11.30
2017-07-01T12:37:42.506Z,12.60
2017-07-01T12:40:10.664Z,5.00
2017-07-01T12:42:38.800Z,6.80
2017-07-01T12:45:06.951Z,3.60
2017-07-01T12:47:35.271Z,2.70
2017-07-01T12:50:03.419Z,7.13
2017-07-01T12:52:31.522Z,4.00
2017-07-01T12:54:59.730Z,4.00
2017-07-01T12:57:28.625Z,3.70
2017-07-01T12:59:56.734Z,3.50
2017-07-01T13:02:25.834Z,3.67
2017-07-01T13:04:53.965Z,3.80
2017-07-01T13:07:22.218Z,3.10
2017-07-01T13:09:50.364Z,2.50
2017-07-01T13:12:18.584Z,3.10
2017-07-01T13:14:46.710Z,3.27
2017-07-01T13:17:15.630Z,4.00
2017-07-01T13:19:43.794Z,3.60
2017-07-01T13:22:11.946Z,4.23
2017-07-01T13:24:40.121Z,3.70
2017-07-01T13:27:08.276Z,3.33
2017-07-01T13:29:36.454Z,3.27
2017-07-01T13:32:04.581Z,3.90
2017-07-01T13:34:33.103Z,5.07
2017-07-01T13:37:01.235Z,4.07
2017-07-01T13:39:29.428Z,11.43
2017-07-01T13:41:57.645Z,16.20
2017-07-01T13:44:25.843Z,8.30
2017-07-01T13:46:54.013Z,43.67
2017-07-01T13:49:22.199Z,32.47
2017-07-01T13:51:52.036Z,58.27
2017-07-01T13:54:20.187Z,54.43
2017-07-01T13:56:48.336Z,16.33
2017-07-01T13:59:16.565Z,29.07
2017-07-01T14:01:44.808Z,31.60
2017-07-01T14:04:12.957Z,20.27
2017-07-01T14:06:41.893Z,6.87
2017-07-01T14:09:10.066Z,12.33
2017-07-01T14:11:38.244Z,6.10
2017-07-01T14:14:06.437Z,6.70
2017-07-01T14:16:34.589Z,3.73
2017-07-01T14:19:02.735Z,3.10
2017-07-01T14:21:31.108Z,5.37
2017-07-01T14:23:59.714Z,6.77
2017-07-01T14:26:27.938Z,3.73
2017-07-01T14:28:56.091Z,2.83
2017-07-01T14:31:24.249Z,2.73
2017-07-01T14:33:52.386Z,3.00
2017-07-01T14:36:20.601Z,3.67
2017-07-01T14:38:48.806Z,3.93
2017-07-01T14:41:16.979Z,4.27
2017-07-01T14:43:45.119Z,5.50
2017-07-01T14:46:13.257Z,4.60
2017-07-01T14:48:41.376Z,4.97
2017-07-01T14:51:09.555Z,4.40
2017-07-01T14:53:38.478Z,4.87
2017-07-01T14:56:07.248Z,5.63
2017-07-01T14:58:35.991Z,4.50
2017-07-01T15:01:04.316Z,5.10
2017-07-01T15:03:32.465Z,5.13
2017-07-01T15:06:00.620Z,6.87
2017-07-01T15:08:29.691Z,6.23
2017-07-01T15:10:57.890Z,5.73
2017-07-01T15:13:26.845Z,4.87
2017-07-01T15:15:54.994Z,5.17
2017-07-01T15:18:23.173Z,2.97
2017-07-01T15:20:51.444Z,3.93
2017-07-01T15:23:19.699Z,4.33
2017-07-01T15:25:47.863Z,6.80
2017-07-01T15:28:16.674Z,8.83
2017-07-01T15:30:44.900Z,13.83
2017-07-01T15:33:13.103Z,28.50
2017-07-01T15:35:41.241Z,30.83
2017-07-01T15:38:09.368Z,19.77
2017-07-01T15:40:38.471Z,31.07
2017-07-01T15:43:07.253Z,63.40
2017-07-01T15:45:35.579Z,54.77
2017-07-01T15:48:03.725Z,22.27
2017-07-01T15:50:31.996Z,33.10
2017-07-01T15:53:00.777Z,12.27
2017-07-01T15:55:28.982Z,14.77
2017-07-01T15:57:57.930Z,14.80
2017-07-01T16:00:37.939Z,10.33
2017-07-01T16:03:06.069Z,8.43
2017-07-01T16:05:34.188Z,8.53
2017-07-01T16:08:02.326Z,5.77
2017-07-01T16:10:30.462Z,7.00
2017-07-01T16:12:58.592Z,4.43
2017-07-01T16:15:26.727Z,6.40
2017-07-01T16:17:54.888Z,7.10
2017-07-01T16:20:23.870Z,6.43
2017-07-01T16:22:53.060Z,5.90
2017-07-01T16:25:21.179Z,5.87
2017-07-01T16:27:49.343Z,9.30
2017-07-01T16:30:17.491Z,5.17
2017-07-01T16:32:45.628Z,4.97
2017-07-01T16:35:13.769Z,5.23
2017-07-01T16:37:41.897Z,8.30
2017-07-01T16:40:10.066Z,5.00
2017-07-01T16:42:38.190Z,8.97
2017-07-01T16:45:06.327Z,6.93
2017-07-01T16:47:34.475Z,6.33
2017-07-01T16:50:02.608Z,5.40
2017-07-01T16:52:31.068Z,7.43
2017-07-01T16:54:59.204Z,5.30
2017-07-01T16:57:27.356Z,7.60
2017-07-01T16:59:56.327Z,6.40
2017-07-01T17:02:24.441Z,4.37
2017-07-01T17:04:52.582Z,4.50
2017-07-01T17:07:21.273Z,4.60
2017-07-01T17:09:49.423Z,4.20
2017-07-01T17:12:17.580Z,3.73
2017-07-01T17:14:45.807Z,4.60
2017-07-01T17:17:14.019Z,4.53
2017-07-01T17:19:42.137Z,4.33
2017-07-01T17:22:10.302Z,4.30
2017-07-01T17:24:38.823Z,4.30
2017-07-01T17:27:06.961Z,4.07
2017-07-01T17:29:35.094Z,4.30
2017-07-01T17:32:04.319Z,3.77
2017-07-01T17:34:32.466Z,3.70
2017-07-01T17:37:00.681Z,4.30
2017-07-01T17:39:28.804Z,3.87
2017-07-01T17:41:57.012Z,6.17
2017-07-01T17:44:25.173Z,4.90
2017-07-01T17:46:53.346Z,5.03
2017-07-01T17:49:21.493Z,5.60
2017-07-01T17:51:49.633Z,22.83
2017-07-01T17:54:17.767Z,17.70
2017-07-01T17:56:45.922Z,70.77
2017-07-01T17:59:14.078Z,233.30
2017-07-01T18:01:42.422Z,209.30
2017-07-01T18:04:11.157Z,108.47
2017-07-01T18:06:39.312Z,148.70
2017-07-01T18:09:08.182Z,33.27
2017-07-01T18:11:36.331Z,15.97
2017-07-01T18:14:04.462Z,6.20
2017-07-01T18:16:32.584Z,11.20
2017-07-01T18:19:00.727Z,5.10
2017-07-01T18:21:29.775Z,7.43
2017-07-01T18:23:57.952Z,6.87
2017-07-01T18:26:26.121Z,6.30
2017-07-01T18:28:54.268Z,7.27
2017-07-01T18:31:22.494Z,7.47
2017-07-01T18:33:51.829Z,6.83
2017-07-01T18:36:21.168Z,5.60
2017-07-01T18:38:49.313Z,6.27
2017-07-01T18:41:17.599Z,5.57
2017-07-01T18:43:46.464Z,6.67
2017-07-01T18:46:14.583Z,7.90
2017-07-01T18:48:43.589Z,8.53
2017-07-01T18:51:12.528Z,5.60
2017-07-01T18:53:41.633Z,5.10
2017-07-01T18:56:09.757Z,5.50
2017-07-01T18:58:39.115Z,5.63
2017-07-01T19:01:07.330Z,4.77
2017-07-01T19:03:36.346Z,5.47
2017-07-01T19:06:07.406Z,10.40
2017-07-01T19:08:35.594Z,6.47
2017-07-01T19:11:04.658Z,4.97
2017-07-01T19:13:32.804Z,5.40
2017-07-01T19:16:00.949Z,6.07
2017-07-01T19:18:29.760Z,5.43
2017-07-01T19:20:58.800Z,7.57
2017-07-01T19:23:26.963Z,6.03
2017-07-01T19:25:55.956Z,5.60
2017-07-01T19:28:24.777Z,6.73
2017-07-01T19:30:54.216Z,7.30
2017-07-01T19:33:22.392Z,6.77
2017-07-01T19:35:50.522Z,6.43
2017-07-01T19:38:19.481Z,7.93
2017-07-01T19:40:48.208Z,6.13
2017-07-01T19:43:16.403Z,7.77
2017-07-01T19:45:44.647Z,7.60
2017-07-01T19:48:13.263Z,8.00
2017-07-01T19:50:41.531Z,8.47
2017-07-01T19:53:09.685Z,7.43
2017-07-01T19:55:37.874Z,7.10
2017-07-01T19:58:06.044Z,8.03
2017-07-01T20:00:35.363Z,7.00
2017-07-01T20:03:03.554Z,7.40
2017-07-01T20:05:32.760Z,7.37
2017-07-01T20:08:02.013Z,8.40
2017-07-01T20:10:30.862Z,11.43
2017-07-01T20:12:59.858Z,11.40
2017-07-01T20:15:28.016Z,9.07
2017-07-01T20:17:56.224Z,7.80
2017-07-01T20:20:25.284Z,8.57
2017-07-01T20:22:55.054Z,7.97
2017-07-01T20:25:23.610Z,8.70
2017-07-01T20:27:52.567Z,8.93
2017-07-01T20:30:20.930Z,8.80
2017-07-01T20:32:49.754Z,8.23
2017-07-01T20:35:17.957Z,8.50
2017-07-01T20:37:46.167Z,8.00
2017-07-01T20:40:14.330Z,7.53
2017-07-01T20:42:42.489Z,8.30
2017-07-01T20:45:10.689Z,8.70
2017-07-01T20:47:39.649Z,7.80
2017-07-01T20:50:08.815Z,9.40
2017-07-01T20:52:36.978Z,6.70
2017-07-01T20:55:05.127Z,7.07
2017-07-01T20:57:34.089Z,6.97
2017-07-01T21:00:02.247Z,6.07
2017-07-01T21:02:30.421Z,6.53
2017-07-01T21:04:58.556Z,6.07
2017-07-01T21:07:26.733Z,6.00
2017-07-01T21:09:55.547Z,6.50
2017-07-01T21:12:23.703Z,5.80
2017-07-01T21:14:52.701Z,10.20
2017-07-01T21:17:22.319Z,8.43
2017-07-01T21:19:50.458Z,6.60
2017-07-01T21:22:18.603Z,7.33
2017-07-01T21:24:46.771Z,8.20
2017-07-01T21:27:14.924Z,6.60
2017-07-01T21:29:43.164Z,7.70
2017-07-01T21:32:11.283Z,9.60
2017-07-01T21:34:40.612Z,7.50
2017-07-01T21:37:09.177Z,9.27
2017-07-01T21:39:37.326Z,7.30
2017-07-01T21:42:05.500Z,6.53
2017-07-01T21:44:33.650Z,5.77
2017-07-01T21:47:01.807Z,6.97
2017-07-01T21:49:30.067Z,6.77
2017-07-01T21:51:58.185Z,6.50
2017-07-01T21:54:26.402Z,7.13
2017-07-01T21:56:54.502Z,6.83
2017-07-01T21:59:23.440Z,7.40
2017-07-01T22:01:52.752Z,10.63
2017-07-01T22:04:21.882Z,7.10
2017-07-01T22:06:50.759Z,8.67
2017-07-01T22:09:19.543Z,7.30
2017-07-01T22:11:48.504Z,7.47
2017-07-01T22:14:16.695Z,7.43
2017-07-01T22:16:45.645Z,8.23
2017-07-01T22:19:13.782Z,8.10
2017-07-01T22:21:42.747Z,7.90
2017-07-01T22:24:10.894Z,8.70
2017-07-01T22:26:39.120Z,7.70
2017-07-01T22:29:07.265Z,7.80
2017-07-01T22:31:35.414Z,7.40
2017-07-01T22:34:03.601Z,8.47
2017-07-01T22:36:31.788Z,9.13
2017-07-01T22:38:59.964Z,8.43
2017-07-01T22:41:28.128Z,6.97
2017-07-01T22:43:56.266Z,9.40
2017-07-01T22:46:24.448Z,8.03
2017-07-01T22:48:52.584Z,8.83
2017-07-01T22:51:20.724Z,9.03
2017-07-01T22:53:49.538Z,8.37
2017-07-01T22:56:17.731Z,8.40
2017-07-01T22:58:46.678Z,8.23
2017-07-01T23:01:14.832Z,9.43
2017-07-01T23:03:43.011Z,9.80
2017-07-01T23:06:11.175Z,9.27
2017-07-01T23:08:39.375Z,8.90
2017-07-01T23:11:07.885Z,9.37
2017-07-01T23:13:36.022Z,9.30
2017-07-01T23:16:04.202Z,10.63
2017-07-01T23:18:32.397Z,9.87
2017-07-01T23:21:00.573Z,9.80
2017-07-01T23:23:29.282Z,12.73
2017-07-01T23:25:57.732Z,11.93
2017-07-01T23:28:25.843Z,13.90
2017-07-01T23:30:53.957Z,13.20
2017-07-01T23:33:22.281Z,11.83
2017-07-01T23:35:50.404Z,12.03
2017-07-01T23:38:20.128Z,15.27
2017-07-01T23:40:48.271Z,12.43
2017-07-01T23:43:18.223Z,12.53
2017-07-01T23:45:46.389Z,14.00
2017-07-01T23:48:15.400Z,12.40
2017-07-01T23:50:44.031Z,12.23
2017-07-01T23:53:12.189Z,11.40
2017-07-01T23:55:40.446Z,17.43
2017-07-01T23:58:08.589Z,19.63
